sensor_id;sensor_type;location;lat;lon;timestamp;temperature;humidity
16313;DHT22;8265;52.622;13.296;2024-03-22T00:04:42;6.20;89.80
16313;DHT22;8265;52.622;13.296;2024-03-22T00:10:04;6.30;89.90
16313;DHT22;8265;52.622;13.296;2024-03-22T00:15:24;6.10;89.90
16313;DHT22;8265;52.622;13.296;2024-03-22T00:20:45;6.10;90.50
16313;DHT22;8265;52.622;13.296;2024-03-22T00:26:06;6.10;90.20
16313;DHT22;8265;52.622;13.296;2024-03-22T00:31:27;6.10;90.20
16313;DHT22;8265;52.622;13.296;2024-03-22T00:36:48;6.10;90.70
16313;DHT22;8265;52.622;13.296;2024-03-22T00:42:09;6.20;90.40
16313;DHT22;8265;52.622;13.296;2024-03-22T00:47:30;6.20;90.20
16313;DHT22;8265;52.622;13.296;2024-03-22T00:52:51;6.20;90.40
16313;DHT22;8265;52.622;13.296;2024-03-22T00:58:12;6.20;90.30
16313;DHT22;8265;52.622;13.296;2024-03-22T01:03:33;6.20;90.40
16313;DHT22;8265;52.622;13.296;2024-03-22T01:08:54;6.10;91.10
16313;DHT22;8265;52.622;13.296;2024-03-22T01:14:15;6.00;91.30
16313;DHT22;8265;52.622;13.296;2024-03-22T01:19:36;6.00;91.80
16313;DHT22;8265;52.622;13.296;2024-03-22T01:24:57;6.10;91.90
16313;DHT22;8265;52.622;13.296;2024-03-22T01:30:18;6.20;91.90
16313;DHT22;8265;52.622;13.296;2024-03-22T01:35:39;6.20;92.50
16313;DHT22;8265;52.622;13.296;2024-03-22T01:41:00;6.20;93.00
16313;DHT22;8265;52.622;13.296;2024-03-22T01:46:21;6.30;92.80
16313;DHT22;8265;52.622;13.296;2024-03-22T01:51:42;6.40;93.00
16313;DHT22;8265;52.622;13.296;2024-03-22T01:57:03;6.40;93.20
16313;DHT22;8265;52.622;13.296;2024-03-22T02:02:24;6.40;93.00
16313;DHT22;8265;52.622;13.296;2024-03-22T02:07:45;6.40;93.20
16313;DHT22;8265;52.622;13.296;2024-03-22T02:13:06;6.50;92.80
16313;DHT22;8265;52.622;13.296;2024-03-22T02:18:27;6.50;92.20
16313;DHT22;8265;52.622;13.296;2024-03-22T02:23:48;6.50;92.50
16313;DHT22;8265;52.622;13.296;2024-03-22T02:29:09;6.50;92.60
16313;DHT22;8265;52.622;13.296;2024-03-22T02:34:30;6.50;92.10
16313;DHT22;8265;52.622;13.296;2024-03-22T02:39:51;6.60;92.00
16313;DHT22;8265;52.622;13.296;2024-03-22T02:45:13;6.50;91.50
16313;DHT22;8265;52.622;13.296;2024-03-22T02:50:34;6.60;91.30
16313;DHT22;8265;52.622;13.296;2024-03-22T02:55:54;6.60;91.40
16313;DHT22;8265;52.622;13.296;2024-03-22T03:01:15;6.60;91.10
16313;DHT22;8265;52.622;13.296;2024-03-22T03:06:36;6.60;91.00
16313;DHT22;8265;52.622;13.296;2024-03-22T03:11:57;6.60;90.70
16313;DHT22;8265;52.622;13.296;2024-03-22T03:17:18;6.70;90.40
16313;DHT22;8265;52.622;13.296;2024-03-22T03:22:40;6.60;90.20
16313;DHT22;8265;52.622;13.296;2024-03-22T03:28:00;6.70;90.20
16313;DHT22;8265;52.622;13.296;2024-03-22T03:33:21;6.70;90.40
16313;DHT22;8265;52.622;13.296;2024-03-22T03:38:42;6.70;90.10
16313;DHT22;8265;52.622;13.296;2024-03-22T03:44:04;6.70;89.80
16313;DHT22;8265;52.622;13.296;2024-03-22T03:49:25;6.80;89.10
16313;DHT22;8265;52.622;13.296;2024-03-22T03:54:46;6.70;88.90
16313;DHT22;8265;52.622;13.296;2024-03-22T04:00:07;6.80;88.90
16313;DHT22;8265;52.622;13.296;2024-03-22T04:05:27;6.80;88.30
16313;DHT22;8265;52.622;13.296;2024-03-22T04:10:55;6.90;87.70
16313;DHT22;8265;52.622;13.296;2024-03-22T04:16:09;6.90;87.90
16313;DHT22;8265;52.622;13.296;2024-03-22T04:21:31;6.90;88.00
16313;DHT22;8265;52.622;13.296;2024-03-22T04:26:52;6.80;88.50
16313;DHT22;8265;52.622;13.296;2024-03-22T04:32:13;6.80;88.50
16313;DHT22;8265;52.622;13.296;2024-03-22T04:37:34;6.80;88.70
16313;DHT22;8265;52.622;13.296;2024-03-22T04:42:55;6.90;88.40
16313;DHT22;8265;52.622;13.296;2024-03-22T04:48:19;6.90;88.00
16313;DHT22;8265;52.622;13.296;2024-03-22T04:53:37;6.90;87.60
16313;DHT22;8265;52.622;13.296;2024-03-22T04:58:58;6.90;87.80
16313;DHT22;8265;52.622;13.296;2024-03-22T05:04:19;6.90;87.80
16313;DHT22;8265;52.622;13.296;2024-03-22T05:09:40;6.90;88.00
16313;DHT22;8265;52.622;13.296;2024-03-22T05:15:04;6.90;87.60
16313;DHT22;8265;52.622;13.296;2024-03-22T05:20:22;6.90;87.30
16313;DHT22;8265;52.622;13.296;2024-03-22T05:25:43;7.00;87.20
16313;DHT22;8265;52.622;13.296;2024-03-22T05:31:04;7.00;87.50
16313;DHT22;8265;52.622;13.296;2024-03-22T05:36:25;7.00;86.90
16313;DHT22;8265;52.622;13.296;2024-03-22T05:41:46;7.00;86.80
16313;DHT22;8265;52.622;13.296;2024-03-22T05:47:07;7.10;86.60
16313;DHT22;8265;52.622;13.296;2024-03-22T05:52:28;7.20;85.90
16313;DHT22;8265;52.622;13.296;2024-03-22T05:57:49;7.20;85.60
16313;DHT22;8265;52.622;13.296;2024-03-22T06:03:10;7.40;85.40
16313;DHT22;8265;52.622;13.296;2024-03-22T06:08:31;7.50;84.60
16313;DHT22;8265;52.622;13.296;2024-03-22T06:13:52;7.50;83.70
16313;DHT22;8265;52.622;13.296;2024-03-22T06:19:13;7.70;83.60
16313;DHT22;8265;52.622;13.296;2024-03-22T06:24:34;7.70;83.60
16313;DHT22;8265;52.622;13.296;2024-03-22T06:29:55;7.70;82.80
16313;DHT22;8265;52.622;13.296;2024-03-22T06:35:16;7.70;82.60
16313;DHT22;8265;52.622;13.296;2024-03-22T06:40:37;7.80;82.40
16313;DHT22;8265;52.622;13.296;2024-03-22T06:45:58;7.80;82.00
16313;DHT22;8265;52.622;13.296;2024-03-22T06:51:19;7.80;82.60
16313;DHT22;8265;52.622;13.296;2024-03-22T06:56:40;8.00;81.80
16313;DHT22;8265;52.622;13.296;2024-03-22T07:02:01;8.10;81.00
16313;DHT22;8265;52.622;13.296;2024-03-22T07:07:22;8.00;81.20
16313;DHT22;8265;52.622;13.296;2024-03-22T07:12:43;8.10;80.90
16313;DHT22;8265;52.622;13.296;2024-03-22T07:18:04;8.10;81.40
16313;DHT22;8265;52.622;13.296;2024-03-22T07:23:25;8.20;80.80
16313;DHT22;8265;52.622;13.296;2024-03-22T07:28:46;8.30;81.00
16313;DHT22;8265;52.622;13.296;2024-03-22T07:34:07;8.30;81.20
16313;DHT22;8265;52.622;13.296;2024-03-22T07:39:28;8.30;82.80
16313;DHT22;8265;52.622;13.296;2024-03-22T07:44:49;8.30;82.90
16313;DHT22;8265;52.622;13.296;2024-03-22T07:50:10;8.40;83.00
16313;DHT22;8265;52.622;13.296;2024-03-22T07:55:31;8.60;82.70
16313;DHT22;8265;52.622;13.296;2024-03-22T08:00:52;8.80;81.10
16313;DHT22;8265;52.622;13.296;2024-03-22T08:06:12;8.90;81.00
16313;DHT22;8265;52.622;13.296;2024-03-22T08:11:33;9.00;80.00
16313;DHT22;8265;52.622;13.296;2024-03-22T08:16:54;9.00;80.90
16313;DHT22;8265;52.622;13.296;2024-03-22T08:22:15;9.10;80.00
16313;DHT22;8265;52.622;13.296;2024-03-22T08:27:36;9.20;79.90
16313;DHT22;8265;52.622;13.296;2024-03-22T08:32:58;9.40;79.20
16313;DHT22;8265;52.622;13.296;2024-03-22T08:38:19;9.40;79.40
16313;DHT22;8265;52.622;13.296;2024-03-22T08:43:40;9.60;79.00
16313;DHT22;8265;52.622;13.296;2024-03-22T08:49:01;9.80;78.30
16313;DHT22;8265;52.622;13.296;2024-03-22T08:54:22;10.10;76.80
16313;DHT22;8265;52.622;13.296;2024-03-22T08:59:43;10.20;76.70
16313;DHT22;8265;52.622;13.296;2024-03-22T09:05:06;10.40;75.70
16313;DHT22;8265;52.622;13.296;2024-03-22T09:10:25;10.50;75.90
16313;DHT22;8265;52.622;13.296;2024-03-22T09:15:46;10.70;74.70
16313;DHT22;8265;52.622;13.296;2024-03-22T09:21:07;10.70;74.80
16313;DHT22;8265;52.622;13.296;2024-03-22T09:26:28;10.80;74.40
16313;DHT22;8265;52.622;13.296;2024-03-22T09:31:49;11.00;73.30
16313;DHT22;8265;52.622;13.296;2024-03-22T09:37:10;11.20;73.40
16313;DHT22;8265;52.622;13.296;2024-03-22T09:42:31;11.40;72.80
16313;DHT22;8265;52.622;13.296;2024-03-22T09:47:51;11.50;72.80
16313;DHT22;8265;52.622;13.296;2024-03-22T09:53:19;11.40;72.80
16313;DHT22;8265;52.622;13.296;2024-03-22T09:58:33;11.10;73.40
16313;DHT22;8265;52.622;13.296;2024-03-22T10:03:55;11.30;73.10
16313;DHT22;8265;52.622;13.296;2024-03-22T10:09:16;11.10;73.60
16313;DHT22;8265;52.622;13.296;2024-03-22T10:14:36;11.10;73.50
16313;DHT22;8265;52.622;13.296;2024-03-22T10:19:57;11.40;74.10
16313;DHT22;8265;52.622;13.296;2024-03-22T10:25:19;11.90;72.40
16313;DHT22;8265;52.622;13.296;2024-03-22T10:30:39;11.90;71.80
16313;DHT22;8265;52.622;13.296;2024-03-22T10:36:00;12.00;70.70
16313;DHT22;8265;52.622;13.296;2024-03-22T10:41:21;12.30;69.60
16313;DHT22;8265;52.622;13.296;2024-03-22T10:46:46;12.30;70.10
16313;DHT22;8265;52.622;13.296;2024-03-22T10:52:03;12.40;69.80
16313;DHT22;8265;52.622;13.296;2024-03-22T10:57:24;12.70;69.10
16313;DHT22;8265;52.622;13.296;2024-03-22T11:02:45;12.80;68.90
16313;DHT22;8265;52.622;13.296;2024-03-22T11:08:06;12.90;68.30
16313;DHT22;8265;52.622;13.296;2024-03-22T11:13:27;12.50;69.20
16313;DHT22;8265;52.622;13.296;2024-03-22T11:18:48;12.30;70.10
16313;DHT22;8265;52.622;13.296;2024-03-22T11:24:09;12.20;71.00
16313;DHT22;8265;52.622;13.296;2024-03-22T11:29:30;12.30;70.50
16313;DHT22;8265;52.622;13.296;2024-03-22T11:34:51;12.30;71.90
16313;DHT22;8265;52.622;13.296;2024-03-22T11:40:13;12.30;74.30
16313;DHT22;8265;52.622;13.296;2024-03-22T11:45:33;11.90;76.40
16313;DHT22;8265;52.622;13.296;2024-03-22T11:50:54;11.50;78.20
16313;DHT22;8265;52.622;13.296;2024-03-22T11:56:19;11.50;78.60
16313;DHT22;8265;52.622;13.296;2024-03-22T12:01:36;11.50;78.60
16313;DHT22;8265;52.622;13.296;2024-03-22T12:06:57;11.40;81.90
16313;DHT22;8265;52.622;13.296;2024-03-22T12:12:18;11.10;84.20
16313;DHT22;8265;52.622;13.296;2024-03-22T12:17:39;10.90;86.70
16313;DHT22;8265;52.622;13.296;2024-03-22T12:23:00;10.60;88.30
16313;DHT22;8265;52.622;13.296;2024-03-22T12:28:22;10.40;90.10
16313;DHT22;8265;52.622;13.296;2024-03-22T12:33:42;10.30;90.60
16313;DHT22;8265;52.622;13.296;2024-03-22T12:39:03;10.30;91.50
16313;DHT22;8265;52.622;13.296;2024-03-22T12:44:24;10.40;91.10
16313;DHT22;8265;52.622;13.296;2024-03-22T12:49:45;10.00;93.30
16313;DHT22;8265;52.622;13.296;2024-03-22T12:55:07;10.00;95.30
16313;DHT22;8265;52.622;13.296;2024-03-22T13:00:27;10.00;95.00
16313;DHT22;8265;52.622;13.296;2024-03-22T13:05:48;10.00;95.10
16313;DHT22;8265;52.622;13.296;2024-03-22T13:11:09;10.00;95.40
16313;DHT22;8265;52.622;13.296;2024-03-22T13:16:30;10.00;95.10
16313;DHT22;8265;52.622;13.296;2024-03-22T13:21:51;10.00;94.50
16313;DHT22;8265;52.622;13.296;2024-03-22T13:27:13;10.20;93.80
16313;DHT22;8265;52.622;13.296;2024-03-22T13:32:33;10.20;94.80
16313;DHT22;8265;52.622;13.296;2024-03-22T13:37:54;10.10;94.50
16313;DHT22;8265;52.622;13.296;2024-03-22T13:43:15;10.20;94.80
16313;DHT22;8265;52.622;13.296;2024-03-22T13:48:36;10.30;94.10
16313;DHT22;8265;52.622;13.296;2024-03-22T13:53:57;10.10;93.70
16313;DHT22;8265;52.622;13.296;2024-03-22T13:59:18;10.20;92.80
16313;DHT22;8265;52.622;13.296;2024-03-22T14:04:39;10.40;92.30
16313;DHT22;8265;52.622;13.296;2024-03-22T14:10:00;10.20;91.70
16313;DHT22;8265;52.622;13.296;2024-03-22T14:15:21;10.20;91.90
16313;DHT22;8265;52.622;13.296;2024-03-22T14:20:42;10.10;93.10
16313;DHT22;8265;52.622;13.296;2024-03-22T14:26:03;10.00;93.50
16313;DHT22;8265;52.622;13.296;2024-03-22T14:31:24;10.20;93.50
16313;DHT22;8265;52.622;13.296;2024-03-22T14:36:45;10.20;93.40
16313;DHT22;8265;52.622;13.296;2024-03-22T14:42:06;10.10;93.90
16313;DHT22;8265;52.622;13.296;2024-03-22T14:47:27;10.20;92.60
16313;DHT22;8265;52.622;13.296;2024-03-22T14:52:48;10.30;92.40
16313;DHT22;8265;52.622;13.296;2024-03-22T14:58:09;10.20;92.10
16313;DHT22;8265;52.622;13.296;2024-03-22T15:03:30;10.10;92.30
16313;DHT22;8265;52.622;13.296;2024-03-22T15:08:51;10.20;92.00
16313;DHT22;8265;52.622;13.296;2024-03-22T15:14:12;10.20;91.50
16313;DHT22;8265;52.622;13.296;2024-03-22T15:19:33;10.30;90.80
16313;DHT22;8265;52.622;13.296;2024-03-22T15:24:54;10.30;90.70
16313;DHT22;8265;52.622;13.296;2024-03-22T15:30:15;10.30;91.20
16313;DHT22;8265;52.622;13.296;2024-03-22T15:35:36;10.20;91.50
16313;DHT22;8265;52.622;13.296;2024-03-22T15:40:57;10.20;90.80
16313;DHT22;8265;52.622;13.296;2024-03-22T15:46:18;10.20;90.80
16313;DHT22;8265;52.622;13.296;2024-03-22T15:51:39;10.20;91.50
16313;DHT22;8265;52.622;13.296;2024-03-22T15:57:00;10.30;90.50
16313;DHT22;8265;52.622;13.296;2024-03-22T16:02:21;10.20;91.50
16313;DHT22;8265;52.622;13.296;2024-03-22T16:07:42;10.20;92.30
16313;DHT22;8265;52.622;13.296;2024-03-22T16:13:03;10.10;92.90
16313;DHT22;8265;52.622;13.296;2024-03-22T16:18:24;10.10;92.70
16313;DHT22;8265;52.622;13.296;2024-03-22T16:23:45;10.10;92.70
16313;DHT22;8265;52.622;13.296;2024-03-22T16:29:07;10.10;93.20
16313;DHT22;8265;52.622;13.296;2024-03-22T16:34:27;10.00;93.60
16313;DHT22;8265;52.622;13.296;2024-03-22T16:39:48;10.00;93.70
16313;DHT22;8265;52.622;13.296;2024-03-22T16:45:09;10.00;93.00
16313;DHT22;8265;52.622;13.296;2024-03-22T16:50:30;10.00;93.20
16313;DHT22;8265;52.622;13.296;2024-03-22T16:55:51;10.00;93.70
16313;DHT22;8265;52.622;13.296;2024-03-22T17:01:12;9.90;94.80
16313;DHT22;8265;52.622;13.296;2024-03-22T17:06:33;10.00;94.70
16313;DHT22;8265;52.622;13.296;2024-03-22T17:11:54;9.90;95.10
16313;DHT22;8265;52.622;13.296;2024-03-22T17:17:15;9.80;95.80
16313;DHT22;8265;52.622;13.296;2024-03-22T17:22:36;9.70;96.50
16313;DHT22;8265;52.622;13.296;2024-03-22T17:27:57;9.70;97.20
16313;DHT22;8265;52.622;13.296;2024-03-22T17:33:18;9.60;97.40
16313;DHT22;8265;52.622;13.296;2024-03-22T17:38:39;9.50;98.00
16313;DHT22;8265;52.622;13.296;2024-03-22T17:44:00;9.50;98.50
16313;DHT22;8265;52.622;13.296;2024-03-22T17:49:21;9.50;98.40
16313;DHT22;8265;52.622;13.296;2024-03-22T17:54:42;9.50;99.10
16313;DHT22;8265;52.622;13.296;2024-03-22T18:00:03;9.60;99.00
16313;DHT22;8265;52.622;13.296;2024-03-22T18:05:24;9.50;98.90
16313;DHT22;8265;52.622;13.296;2024-03-22T18:10:45;9.50;99.30
16313;DHT22;8265;52.622;13.296;2024-03-22T18:16:06;9.50;99.20
16313;DHT22;8265;52.622;13.296;2024-03-22T18:21:27;9.50;99.30
16313;DHT22;8265;52.622;13.296;2024-03-22T18:26:48;9.50;99.30
16313;DHT22;8265;52.622;13.296;2024-03-22T18:32:09;9.50;99.50
16313;DHT22;8265;52.622;13.296;2024-03-22T18:37:31;9.50;99.20
16313;DHT22;8265;52.622;13.296;2024-03-22T18:42:51;9.60;99.00
16313;DHT22;8265;52.622;13.296;2024-03-22T18:48:12;9.50;99.10
16313;DHT22;8265;52.622;13.296;2024-03-22T18:53:33;9.50;99.10
16313;DHT22;8265;52.622;13.296;2024-03-22T18:58:54;9.50;99.30
16313;DHT22;8265;52.622;13.296;2024-03-22T19:04:15;9.40;99.20
16313;DHT22;8265;52.622;13.296;2024-03-22T19:09:36;9.40;99.00
16313;DHT22;8265;52.622;13.296;2024-03-22T19:14:57;9.40;99.20
16313;DHT22;8265;52.622;13.296;2024-03-22T19:20:18;9.40;99.30
16313;DHT22;8265;52.622;13.296;2024-03-22T19:25:39;9.40;99.00
16313;DHT22;8265;52.622;13.296;2024-03-22T19:31:00;9.50;99.20
16313;DHT22;8265;52.622;13.296;2024-03-22T19:36:21;9.40;99.00
16313;DHT22;8265;52.622;13.296;2024-03-22T19:41:42;9.40;99.10
16313;DHT22;8265;52.622;13.296;2024-03-22T19:47:03;9.30;99.60
16313;DHT22;8265;52.622;13.296;2024-03-22T19:52:24;9.40;99.70
16313;DHT22;8265;52.622;13.296;2024-03-22T19:57:45;9.20;99.90
16313;DHT22;8265;52.622;13.296;2024-03-22T20:03:06;9.20;99.90
16313;DHT22;8265;52.622;13.296;2024-03-22T20:08:27;9.20;99.90
16313;DHT22;8265;52.622;13.296;2024-03-22T20:13:48;9.20;99.90
16313;DHT22;8265;52.622;13.296;2024-03-22T20:19:09;9.20;99.90
16313;DHT22;8265;52.622;13.296;2024-03-22T20:24:30;9.20;99.90
16313;DHT22;8265;52.622;13.296;2024-03-22T20:29:51;9.20;99.90
16313;DHT22;8265;52.622;13.296;2024-03-22T20:35:12;9.20;99.90
